DEMSL EDDC-EDDC

Flight info

Callsign DEMSL
Flight time 0h 20m
Altitude
Route
Aircraft BE36

Departure

Time 2026-04-27 12:36
Airport Dresden Airport (EDDC)

Arrival

Time 2026-04-27 12:57
Airport Dresden Airport (EDDC)
Time Latitude Longitude Altitude Speed Heading
2026-04-27 12:35 51.12700 13.75848 750 ft 26 kts 343°
2026-04-27 12:35 51.12971 13.76158 746 ft 82 kts 40°
2026-04-27 12:36 51.13500 13.76881 934 ft 108 kts 39°
2026-04-27 12:36 51.14046 13.77683 1405 ft 114 kts 43°
2026-04-27 12:36 51.14408 13.78817 1713 ft 134 kts 103°
2026-04-27 12:36 51.13907 13.80237 1854 ft 158 kts 124°
2026-04-27 12:37 51.13091 13.80965 2119 ft 118 kts 194°
2026-04-27 12:37 51.12405 13.80381 1958 ft 114 kts 214°
2026-04-27 12:37 51.11777 13.79640 1802 ft 108 kts 223°
2026-04-27 12:37 51.11166 13.78803 1801 ft 123 kts 223°
2026-04-27 12:38 51.10546 13.77787 1820 ft 121 kts 244°
2026-04-27 12:38 51.10617 13.76660 1709 ft 111 kts 301°
2026-04-27 12:38 51.11079 13.75576 1488 ft 125 kts 307°
2026-04-27 12:38 51.11672 13.74704 1474 ft 102 kts 357°
2026-04-27 12:39 51.12314 13.75238 975 ft 115 kts 41°
2026-04-27 12:39 51.12894 13.76056 754 ft 100 kts 41°
2026-04-27 12:39 51.13351 13.76693 730 ft 78 kts 42°
2026-04-27 12:39 51.13898 13.77443 732 ft 128 kts 41°
2026-04-27 12:40 51.14418 13.78561 1252 ft 117 kts 91°
2026-04-27 12:40 51.13946 13.79756 1512 ft 141 kts 128°
2026-04-27 12:40 51.13267 13.80769 1699 ft 128 kts 166°
2026-04-27 12:40 51.12549 13.80408 1640 ft 109 kts 213°
2026-04-27 12:41 51.11945 13.79702 1447 ft 107 kts 220°
2026-04-27 12:41 51.11352 13.78916 1306 ft 109 kts 219°
2026-04-27 12:41 51.10773 13.78223 1268 ft 104 kts 219°
2026-04-27 12:41 51.10248 13.77462 1282 ft 101 kts 246°
2026-04-27 12:42 51.10353 13.76446 1249 ft 105 kts 297°
2026-04-27 12:42 51.10723 13.75388 1344 ft 112 kts 303°
2026-04-27 12:42 51.11153 13.74392 1338 ft 100 kts 322°
2026-04-27 12:42 51.11731 13.74485 1149 ft 99 kts 39°
2026-04-27 12:43 51.12270 13.75194 910 ft 107 kts 39°
2026-04-27 12:43 51.12819 13.75965 753 ft 95 kts 42°
2026-04-27 12:43 51.13258 13.76571 735 ft 75 kts 40°
2026-04-27 12:43 51.13798 13.77300 733 ft 127 kts 41°
2026-04-27 12:44 51.14583 13.78035 1039 ft 122 kts 338°
2026-04-27 12:44 51.15070 13.77122 1703 ft 102 kts 301°
2026-04-27 12:44 51.15027 13.76137 1699 ft 91 kts 225°
2026-04-27 12:44 51.14482 13.75539 1530 ft 98 kts 215°
2026-04-27 12:45 51.13910 13.74948 1446 ft 99 kts 213°
2026-04-27 12:45 51.13283 13.74322 1443 ft 111 kts 213°
2026-04-27 12:45 51.12644 13.73664 1442 ft 108 kts 214°
2026-04-27 12:45 51.12038 13.73052 1476 ft 102 kts 213°
2026-04-27 12:46 51.11381 13.72885 1518 ft 106 kts 139°
2026-04-27 12:46 51.11116 13.73897 1417 ft 105 kts 45°
2026-04-27 12:46 51.11751 13.74472 1141 ft 106 kts 38°
2026-04-27 12:46 51.12289 13.75227 889 ft 98 kts 40°
2026-04-27 12:47 51.12776 13.75888 752 ft 84 kts 40°
2026-04-27 12:47 51.13301 13.76614 753 ft 124 kts 41°
2026-04-27 12:47 51.14038 13.77639 730 ft 156 kts 40°
2026-04-27 12:47 51.14759 13.77503 1420 ft 128 kts 314°
2026-04-27 12:48 51.14922 13.76125 1622 ft 146 kts 231°
2026-04-27 12:48 51.14037 13.75069 1590 ft 173 kts 211°
2026-04-27 12:48 51.13067 13.74092 1478 ft 149 kts 217°
2026-04-27 12:48 51.12303 13.73972 1435 ft 138 kts 120°
2026-04-27 12:49 51.12395 13.75368 920 ft 137 kts 37°
2026-04-27 12:49 51.12964 13.76160 742 ft 82 kts 41°
2026-04-27 12:49 51.13524 13.76927 746 ft 130 kts 41°
2026-04-27 12:49 51.14185 13.78048 950 ft 145 kts 41°
2026-04-27 12:50 51.14859 13.79018 1719 ft 119 kts 51°
2026-04-27 12:50 51.14846 13.80189 1828 ft 109 kts 119°
2026-04-27 12:50 51.14378 13.81263 1887 ft 123 kts 138°
2026-04-27 12:50 51.13573 13.81264 1895 ft 124 kts 221°
2026-04-27 12:51 51.12928 13.80394 1723 ft 119 kts 217°
2026-04-27 12:51 51.12252 13.79689 1601 ft 110 kts 214°
2026-04-27 12:51 51.11614 13.79073 1461 ft 114 kts 215°
2026-04-27 12:51 51.10937 13.78342 1429 ft 118 kts 220°
2026-04-27 12:52 51.10360 13.77562 1545 ft 95 kts 224°
2026-04-27 12:52 51.09992 13.76735 1490 ft 96 kts 275°
2026-04-27 12:52 51.10294 13.75690 1411 ft 113 kts 299°
2026-04-27 12:52 51.10639 13.74629 1340 ft 109 kts 304°
2026-04-27 12:53 51.11910 13.74724 1017 ft 118 kts 66°
2026-04-27 12:53 51.12454 13.75444 783 ft 92 kts 38°
2026-04-27 12:53 51.12904 13.76070 751 ft 97 kts 40°
2026-04-27 12:54 51.13537 13.76937 754 ft 140 kts 39°
2026-04-27 12:54 51.13911 13.78155 1190 ft 127 kts 135°
2026-04-27 12:54 51.13232 13.79069 1625 ft 131 kts 149°
2026-04-27 12:54 51.12458 13.78877 1699 ft 119 kts 220°
2026-04-27 12:55 51.11734 13.77991 1865 ft 144 kts 217°
2026-04-27 12:55 51.10890 13.76959 2029 ft 153 kts 217°
2026-04-27 12:55 51.10050 13.76075 2040 ft 139 kts 211°
2026-04-27 12:55 51.09711 13.74891 1971 ft 143 kts 297°
2026-04-27 12:56 51.10436 13.73664 1908 ft 154 kts 319°
2026-04-27 12:56 51.11239 13.73671 1615 ft 122 kts
2026-04-27 12:56 51.11843 13.74509 1077 ft 110 kts 21°
2026-04-27 12:56 51.12304 13.75230 823 ft 73 kts 43°
2026-04-27 12:57 51.12613 13.75676 756 ft 32 kts 42°
2026-04-27 12:57 51.12670 13.75889 748 ft 21 kts 130°
2026-04-27 12:57 51.12599 13.76015 746 ft 0 kts 130°
2026-04-27 12:58 51.12578 13.76052 749 ft 16 kts 146°
2026-04-27 12:58 51.12510 13.76021 752 ft 12 kts 225°
2026-04-27 12:58 51.12439 13.75938 754 ft 7 kts 150°
2026-04-27 12:59 51.12426 13.75981 754 ft 0 kts 124°
2026-04-27 12:59 51.12425 13.75982 755 ft 0 kts 133°